88  °F
Temperature
31  °C
Temperature
19  °C
 Dewpoint
66  °F
  Dewpoint
49  %
 Humidity
  Temperature
9  mph
Wind Speed
8  kts
Wind Speed
14  km/h
Wind Speed
4.0  m/s
Wind Speed
210°
South South
West

Wind Speed
Clear
Conditions
Pressure 30.07 (inHG) - 1018.32 (mb)
Visibility 9.9 (mi) - 16.0 (km)

Sky Conditions
KPCW
Location Carl R Keller Field 5 mi (8.05 km)
Metar :KPCW 091955Z AUTO 21008KT 10SM CLR 31/19 A3007 RMK AO2
Sun 9th August 15:55 pm

Nearest Airport
https://www.checkwx.com/weather/KPCW
  Metar Aviation API Data Provided by https://www.checkwx.com/ Original CSS/SVG/PHP scripts by weather34.com © 2015-2020